createdAt,value
2019-03-18T00:01:16.461Z,73.45
2019-03-18T00:03:47.161Z,73.23
2019-03-18T00:06:25.636Z,73.48
2019-03-18T00:08:56.247Z,73.12
2019-03-18T00:11:27.091Z,73.93
2019-03-18T00:14:35.360Z,73.99
2019-03-18T00:17:13.861Z,73.74
2019-03-18T00:19:50.457Z,74.37
2019-03-18T00:22:21.109Z,74.74
2019-03-18T00:24:51.818Z,74.59
2019-03-18T00:27:29.916Z,74.74
2019-03-18T00:30:00.498Z,75.15
2019-03-18T00:32:31.189Z,74.42
2019-03-18T00:35:11.866Z,74.61
2019-03-18T00:37:43.548Z,74.53
2019-03-18T00:40:14.276Z,75.04
2019-03-18T00:42:45.054Z,75.41
2019-03-18T00:45:15.998Z,74.94
2019-03-18T00:47:46.707Z,74.57
2019-03-18T00:50:17.473Z,74.63
2019-03-18T00:52:48.338Z,74.17
2019-03-18T00:55:18.971Z,74.60
2019-03-18T00:57:49.688Z,74.07
2019-03-18T01:00:27.195Z,74.22
2019-03-18T01:03:07.189Z,74.79
2019-03-18T01:05:39.821Z,74.31
2019-03-18T01:08:14.946Z,74.83
2019-03-18T01:10:45.615Z,75.13
2019-03-18T01:13:16.279Z,74.43
2019-03-18T01:15:46.862Z,75.21
2019-03-18T01:18:27.283Z,75.48
2019-03-18T01:21:01.948Z,74.17
2019-03-18T01:23:32.638Z,74.53
2019-03-18T01:26:03.300Z,75.52
2019-03-18T01:28:33.974Z,75.43
2019-03-18T01:31:04.635Z,75.82
2019-03-18T01:33:35.327Z,75.49
2019-03-18T01:36:06.073Z,75.39
2019-03-18T01:38:41.109Z,75.17
2019-03-18T01:41:11.754Z,74.77
2019-03-18T01:43:42.339Z,74.50
2019-03-18T01:46:13.019Z,75.24
2019-03-18T01:48:43.589Z,75.27
2019-03-18T01:51:22.534Z,74.97
2019-03-18T01:53:54.206Z,74.94
2019-03-18T01:56:24.795Z,75.25
2019-03-18T01:58:55.485Z,75.59
2019-03-18T02:01:26.163Z,74.92
2019-03-18T02:03:56.873Z,75.23
2019-03-18T02:06:52.477Z,75.48
2019-03-18T02:09:23.018Z,75.52
2019-03-18T02:11:53.696Z,75.76
2019-03-18T02:14:34.416Z,75.78
2019-03-18T02:17:05.133Z,76.36
2019-03-18T02:19:41.315Z,75.86
2019-03-18T02:22:22.982Z,76.35
2019-03-18T02:24:53.596Z,76.14
2019-03-18T02:27:41.904Z,76.49
2019-03-18T02:30:33.505Z,76.59
2019-03-18T02:33:04.222Z,76.45
2019-03-18T02:35:34.787Z,76.30
2019-03-18T02:38:05.388Z,76.22
2019-03-18T02:40:54.643Z,76.60
2019-03-18T02:43:25.378Z,76.38
2019-03-18T02:46:09.344Z,75.47
2019-03-18T02:48:28.387Z,74.92
2019-03-18T02:50:58.982Z,75.18
2019-03-18T02:53:29.668Z,74.89
2019-03-18T02:56:00.229Z,75.65
2019-03-18T02:58:42.799Z,75.63
2019-03-18T03:01:29.683Z,75.86
2019-03-18T03:04:01.384Z,76.62
2019-03-18T03:06:31.976Z,77.43
2019-03-18T03:09:02.634Z,78.56
2019-03-18T03:11:34.506Z,79.23
2019-03-18T03:14:25.541Z,79.79
2019-03-18T03:17:08.497Z,78.35
2019-03-18T03:19:39.270Z,80.46
2019-03-18T03:22:16.205Z,78.97
2019-03-18T03:24:46.800Z,78.46
2019-03-18T03:27:43.477Z,79.00
2019-03-18T03:30:14.376Z,77.50
2019-03-18T03:32:52.169Z,79.32
2019-03-18T03:35:23.907Z,79.39
2019-03-18T03:37:54.637Z,80.56
2019-03-18T03:40:25.321Z,80.31
2019-03-18T03:42:56.068Z,80.08
2019-03-18T03:45:33.683Z,79.77
2019-03-18T03:48:04.469Z,81.01
2019-03-18T03:50:34.988Z,79.71
2019-03-18T03:53:05.558Z,79.87
2019-03-18T03:55:36.229Z,80.11
2019-03-18T03:58:06.784Z,80.45
2019-03-18T04:00:37.467Z,80.66
2019-03-18T04:03:08.166Z,80.00
2019-03-18T04:05:38.667Z,80.56
2019-03-18T04:08:09.550Z,79.57
2019-03-18T04:10:47.504Z,79.39
2019-03-18T04:13:22.957Z,80.15
2019-03-18T04:15:53.652Z,80.63
2019-03-18T04:18:24.363Z,79.68
2019-03-18T04:21:07.031Z,80.26
2019-03-18T04:23:37.634Z,79.04
2019-03-18T04:26:08.293Z,80.84
2019-03-18T04:28:38.930Z,80.33
2019-03-18T04:31:09.618Z,80.86
2019-03-18T04:33:46.342Z,80.70
2019-03-18T04:36:17.064Z,80.07
2019-03-18T04:39:14.220Z,80.19
2019-03-18T04:42:17.962Z,80.72
2019-03-18T04:44:50.586Z,79.74
2019-03-18T04:47:22.275Z,79.35
2019-03-18T04:49:52.808Z,80.02
2019-03-18T04:52:41.860Z,80.06
2019-03-18T04:55:12.468Z,79.48
2019-03-18T04:57:43.151Z,80.01
2019-03-18T05:00:14.901Z,80.09
2019-03-18T05:02:49.241Z,80.90
2019-03-18T05:05:23.342Z,80.63
2019-03-18T05:07:54.397Z,80.82
2019-03-18T05:10:28.655Z,79.71
2019-03-18T05:12:59.419Z,79.29
2019-03-18T05:15:30.097Z,80.21
2019-03-18T05:18:00.740Z,80.58
2019-03-18T05:20:31.344Z,80.49
2019-03-18T05:23:01.957Z,80.66
2019-03-18T05:25:32.730Z,79.71
2019-03-18T05:28:03.474Z,79.86
2019-03-18T05:30:37.815Z,80.55
2019-03-18T05:33:08.512Z,80.50
2019-03-18T05:35:39.295Z,81.26
2019-03-18T05:38:11.011Z,81.90
2019-03-18T05:41:00.238Z,82.12
2019-03-18T05:43:36.353Z,81.81
2019-03-18T05:46:10.235Z,81.19
2019-03-18T05:48:40.929Z,81.53
2019-03-18T05:51:12.634Z,81.18
2019-03-18T05:53:43.291Z,81.24
2019-03-18T05:56:13.924Z,81.29
2019-03-18T05:58:44.624Z,80.02
2019-03-18T06:01:24.715Z,80.67
2019-03-18T06:04:03.388Z,81.64
2019-03-18T06:06:39.188Z,81.24
2019-03-18T06:09:09.879Z,82.37
2019-03-18T06:11:43.750Z,81.37
2019-03-18T06:14:35.569Z,81.68
2019-03-18T06:17:06.167Z,80.85
2019-03-18T06:19:36.792Z,80.85
2019-03-18T06:22:13.395Z,80.98
2019-03-18T06:24:44.134Z,81.06
2019-03-18T06:27:14.775Z,80.47
2019-03-18T06:29:48.423Z,80.39
2019-03-18T06:32:19.120Z,79.96
2019-03-18T06:34:50.715Z,78.99
2019-03-18T06:37:21.469Z,79.06
2019-03-18T06:39:57.248Z,79.39
2019-03-18T06:42:27.835Z,80.15
2019-03-18T06:45:10.277Z,80.24
2019-03-18T06:47:40.910Z,80.06
2019-03-18T06:50:12.642Z,80.28
2019-03-18T06:52:43.312Z,79.51
2019-03-18T06:55:13.943Z,78.50
2019-03-18T06:57:44.642Z,76.98
2019-03-18T07:00:15.340Z,77.25
2019-03-18T07:02:46.056Z,77.14
2019-03-18T07:05:16.768Z,76.58
2019-03-18T07:07:58.935Z,76.46
2019-03-18T07:10:29.669Z,76.48
2019-03-18T07:13:00.340Z,76.43
2019-03-18T07:15:30.861Z,76.41
2019-03-18T07:18:01.477Z,76.91
2019-03-18T07:20:32.145Z,75.90
2019-03-18T07:23:04.794Z,74.44
2019-03-18T07:25:35.423Z,73.71
2019-03-18T07:28:06.088Z,75.87
2019-03-18T07:30:36.757Z,74.39
2019-03-18T07:33:07.441Z,75.67
2019-03-18T07:35:38.117Z,74.05
2019-03-18T07:38:08.824Z,73.09
2019-03-18T07:40:39.559Z,74.13
2019-03-18T07:43:14.147Z,74.11
2019-03-18T07:45:44.755Z,73.18
2019-03-18T07:48:15.364Z,71.18
2019-03-18T07:50:46.015Z,71.69
2019-03-18T07:53:18.262Z,71.29
2019-03-18T07:56:15.595Z,71.39
2019-03-18T07:58:46.204Z,70.40
2019-03-18T08:01:16.810Z,71.40
2019-03-18T08:03:47.492Z,71.15
2019-03-18T08:06:36.529Z,73.02
2019-03-18T08:09:09.011Z,71.87
2019-03-18T08:11:39.711Z,72.95
2019-03-18T08:14:10.293Z,72.67
2019-03-18T08:16:41.146Z,72.85
2019-03-18T08:19:16.632Z,73.27
2019-03-18T08:21:55.084Z,72.51
2019-03-18T08:24:25.681Z,74.41
2019-03-18T08:26:56.391Z,72.82
2019-03-18T08:29:33.440Z,73.23
2019-03-18T08:32:04.120Z,73.49
2019-03-18T08:34:34.745Z,72.28
2019-03-18T08:37:09.302Z,71.69
2019-03-18T08:39:39.987Z,70.58
2019-03-18T08:42:11.717Z,69.60
2019-03-18T08:44:50.298Z,70.17
2019-03-18T08:47:26.794Z,69.35
2019-03-18T08:50:07.796Z,68.69
2019-03-18T08:52:43.845Z,67.63
2019-03-18T08:55:23.849Z,69.01
2019-03-18T08:57:54.537Z,67.51
2019-03-18T09:00:43.860Z,66.85
2019-03-18T09:03:44.737Z,67.05
2019-03-18T09:06:16.475Z,67.34
2019-03-18T09:08:47.085Z,67.56
2019-03-18T09:11:17.680Z,66.67
2019-03-18T09:13:48.352Z,66.18
2019-03-18T09:16:18.933Z,68.04
2019-03-18T09:18:49.589Z,66.41
2019-03-18T09:21:20.241Z,67.95
2019-03-18T09:24:01.123Z,65.35
2019-03-18T09:26:31.832Z,65.27
2019-03-18T09:29:02.556Z,64.86
2019-03-18T09:31:43.157Z,65.05
2019-03-18T09:34:42.409Z,63.63
2019-03-18T09:37:12.985Z,63.41
2019-03-18T09:39:43.696Z,62.07
2019-03-18T09:45:20.214Z,62.79
2019-03-18T09:48:08.828Z,59.88
2019-03-18T09:50:56.863Z,61.45
2019-03-18T09:53:29.439Z,60.03
2019-03-18T09:56:08.252Z,61.27
2019-03-18T09:58:44.799Z,61.45
2019-03-18T10:01:50.844Z,61.18
2019-03-18T10:04:21.504Z,60.81
2019-03-18T10:06:55.468Z,61.45
2019-03-18T10:09:31.344Z,61.07
2019-03-18T10:12:01.959Z,61.10
2019-03-18T10:14:41.969Z,61.16
2019-03-18T10:17:18.470Z,61.83
2019-03-18T10:19:49.096Z,62.74
2019-03-18T10:22:32.803Z,62.58
2019-03-18T10:25:04.824Z,62.27
2019-03-18T10:27:37.746Z,63.12
2019-03-18T10:30:08.112Z,66.16
2019-03-18T10:32:44.890Z,66.99
2019-03-18T10:35:15.616Z,64.25
2019-03-18T10:37:46.182Z,61.16
2019-03-18T10:40:16.785Z,60.52
2019-03-18T10:42:47.342Z,61.15
2019-03-18T10:45:18.025Z,61.85
2019-03-18T10:47:48.670Z,61.21
2019-03-18T10:50:19.408Z,60.57
2019-03-18T10:52:50.243Z,58.63
2019-03-18T10:55:27.021Z,59.11
2019-03-18T10:58:18.017Z,60.23
2019-03-18T11:00:49.918Z,59.46
2019-03-18T11:03:20.578Z,57.65
2019-03-18T11:05:53.229Z,56.03
2019-03-18T11:08:33.127Z,56.37
2019-03-18T11:11:22.082Z,55.76
2019-03-18T11:14:15.299Z,55.20
2019-03-18T11:16:45.936Z,56.35
2019-03-18T11:19:16.570Z,55.55
2019-03-18T11:21:47.356Z,56.04
2019-03-18T11:24:17.978Z,57.40
2019-03-18T11:26:55.193Z,55.96
2019-03-18T11:29:24.818Z,57.90
2019-03-18T11:31:55.427Z,58.33
2019-03-18T11:34:26.026Z,59.08
2019-03-18T11:36:56.764Z,57.04
2019-03-18T11:39:27.475Z,56.03
2019-03-18T11:41:58.126Z,54.22
2019-03-18T11:44:34.272Z,54.59
2019-03-18T11:47:11.932Z,54.83
2019-03-18T11:49:42.690Z,52.82
2019-03-18T11:52:20.366Z,51.19
2019-03-18T11:54:51.145Z,50.78
2019-03-18T11:57:22.767Z,50.63
2019-03-18T12:00:00.801Z,48.55
2019-03-18T12:02:31.496Z,49.31
2019-03-18T12:05:02.106Z,49.55
2019-03-18T12:07:46.231Z,48.32
2019-03-18T12:10:18.050Z,47.75
2019-03-18T12:12:48.749Z,48.11
2019-03-18T12:15:37.871Z,47.76
2019-03-18T12:18:08.623Z,47.82
2019-03-18T12:20:51.422Z,48.14
2019-03-18T12:23:25.118Z,47.85
2019-03-18T12:25:55.822Z,47.06
2019-03-18T12:28:39.508Z,47.79
2019-03-18T12:31:10.133Z,49.04
2019-03-18T12:33:47.398Z,48.73
2019-03-18T12:36:18.089Z,51.04
2019-03-18T12:38:48.651Z,49.51
2019-03-18T12:41:19.339Z,49.64
2019-03-18T12:43:50.009Z,47.96
2019-03-18T12:46:20.701Z,46.52
2019-03-18T12:48:51.325Z,47.26
2019-03-18T12:51:28.790Z,48.69
2019-03-18T12:54:20.678Z,51.04
2019-03-18T12:56:51.271Z,48.67
2019-03-18T12:59:21.866Z,51.13
2019-03-18T13:01:52.566Z,52.26
2019-03-18T13:04:53.921Z,52.19
2019-03-18T13:07:24.704Z,51.64
2019-03-18T13:09:55.331Z,51.16
2019-03-18T13:12:25.937Z,49.46
2019-03-18T13:14:56.440Z,49.95
2019-03-18T13:17:27.052Z,48.96
2019-03-18T13:20:08.185Z,49.11
2019-03-18T13:22:38.767Z,48.21
2019-03-18T13:25:13.288Z,49.08
2019-03-18T13:27:50.115Z,51.07
2019-03-18T13:30:21.017Z,50.78
2019-03-18T13:32:51.564Z,50.91
2019-03-18T13:35:22.243Z,51.13
2019-03-18T13:38:09.390Z,50.45
2019-03-18T13:40:48.265Z,49.86
2019-03-18T13:43:18.898Z,51.52
2019-03-18T13:45:55.226Z,50.31
2019-03-18T13:48:21.804Z,50.17
2019-03-18T13:50:53.463Z,49.63
2019-03-18T13:53:24.348Z,50.15
2019-03-18T13:55:57.361Z,49.97
2019-03-18T13:58:28.100Z,49.84
2019-03-18T14:00:58.807Z,49.46
2019-03-18T14:03:29.452Z,48.85
2019-03-18T14:06:01.383Z,49.10
2019-03-18T14:08:50.336Z,49.75
2019-03-18T14:11:26.480Z,49.49
2019-03-18T14:13:57.068Z,50.09
2019-03-18T14:16:41.595Z,49.98
2019-03-18T14:19:15.760Z,50.08
2019-03-18T14:21:46.488Z,50.79
2019-03-18T14:24:17.170Z,49.10
2019-03-18T14:26:49.802Z,49.28
2019-03-18T14:29:25.894Z,49.45
2019-03-18T14:32:06.963Z,49.10
2019-03-18T14:34:37.603Z,47.98
2019-03-18T14:37:13.785Z,47.76
2019-03-18T14:40:14.961Z,49.45
2019-03-18T14:42:50.356Z,50.42
2019-03-18T14:45:23.096Z,50.87
2019-03-18T14:47:55.804Z,51.00
2019-03-18T14:50:27.040Z,50.71
2019-03-18T14:52:57.723Z,51.54
2019-03-18T14:55:28.397Z,50.68
2019-03-18T14:58:07.095Z,51.32
2019-03-18T15:00:37.757Z,49.63
2019-03-18T15:03:10.468Z,49.05
2019-03-18T15:05:41.136Z,43.23
2019-03-18T15:08:12.794Z,42.96
2019-03-18T15:10:51.557Z,45.02
2019-03-18T15:13:32.135Z,45.08
2019-03-18T15:16:03.718Z,44.11
2019-03-18T15:18:34.364Z,44.57
2019-03-18T15:21:14.328Z,47.19
2019-03-18T15:23:49.518Z,50.41
2019-03-18T15:26:41.205Z,50.72
2019-03-18T15:29:12.000Z,51.49
2019-03-18T15:31:42.588Z,52.71
2019-03-18T15:34:13.728Z,53.21
2019-03-18T15:36:44.451Z,52.89
2019-03-18T15:39:15.187Z,52.81
2019-03-18T15:41:45.961Z,52.17
2019-03-18T15:44:21.476Z,52.49
2019-03-18T15:46:52.263Z,52.04
2019-03-18T15:49:22.850Z,51.30
2019-03-18T15:52:11.562Z,51.44
2019-03-18T15:54:53.396Z,51.19
2019-03-18T15:57:14.832Z,51.95
2019-03-18T15:59:58.124Z,51.82
2019-03-18T16:02:28.805Z,52.07
2019-03-18T16:04:59.467Z,52.91
2019-03-18T16:07:33.641Z,52.62
2019-03-18T16:10:04.767Z,53.62
2019-03-18T16:12:36.833Z,53.19
2019-03-18T16:15:08.184Z,52.65
2019-03-18T16:17:41.545Z,53.50
2019-03-18T16:20:14.640Z,53.55
2019-03-18T16:22:51.791Z,52.47
2019-03-18T16:25:30.800Z,52.91
2019-03-18T16:28:12.869Z,53.44
2019-03-18T16:30:43.643Z,53.36
2019-03-18T16:33:14.417Z,53.04
2019-03-18T16:36:12.125Z,52.75
2019-03-18T16:38:49.023Z,53.41
2019-03-18T16:41:32.955Z,53.87
2019-03-18T16:44:03.686Z,54.18
2019-03-18T16:46:34.493Z,52.88
2019-03-18T16:49:05.252Z,52.49
2019-03-18T16:51:35.852Z,52.60
2019-03-18T16:54:24.890Z,52.26
2019-03-18T16:57:02.157Z,52.60
2019-03-18T17:00:03.356Z,51.95
2019-03-18T17:02:35.313Z,51.95
2019-03-18T17:05:06.709Z,51.81
2019-03-18T17:07:37.756Z,51.60
2019-03-18T17:10:19.394Z,51.64
2019-03-18T17:12:51.165Z,51.07
2019-03-18T17:15:21.903Z,52.24
2019-03-18T17:17:52.643Z,50.79
2019-03-18T17:20:23.231Z,51.04
2019-03-18T17:22:54.092Z,49.85
2019-03-18T17:25:25.015Z,50.12
2019-03-18T17:27:57.742Z,49.99
2019-03-18T17:30:28.465Z,51.10
2019-03-18T17:33:02.348Z,50.83
2019-03-18T17:35:53.025Z,51.09
2019-03-18T17:38:28.295Z,52.53
2019-03-18T17:41:04.375Z,51.14
2019-03-18T17:43:35.112Z,51.32
2019-03-18T17:46:05.834Z,51.79
2019-03-18T17:48:43.240Z,51.65
2019-03-18T17:51:13.756Z,52.03
2019-03-18T17:53:45.380Z,51.13
2019-03-18T17:56:29.326Z,51.01
2019-03-18T17:58:50.597Z,51.39
2019-03-18T18:01:22.397Z,51.51
2019-03-18T18:03:54.593Z,53.32
2019-03-18T18:06:38.338Z,53.34
2019-03-18T18:09:09.248Z,52.57
2019-03-18T18:11:44.221Z,53.71
2019-03-18T18:14:14.883Z,53.45
2019-03-18T18:16:45.665Z,53.72
2019-03-18T18:19:16.241Z,52.57
2019-03-18T18:22:14.173Z,53.27
2019-03-18T18:24:44.968Z,53.16
2019-03-18T18:27:19.136Z,52.62
2019-03-18T18:30:01.066Z,52.98
2019-03-18T18:32:32.897Z,53.16
2019-03-18T18:35:12.843Z,53.63
2019-03-18T18:37:44.709Z,52.47
2019-03-18T18:40:27.376Z,52.77
2019-03-18T18:43:00.094Z,52.63
2019-03-18T18:45:31.184Z,54.13
2019-03-18T18:48:10.717Z,52.90
2019-03-18T18:50:41.644Z,52.03
2019-03-18T18:53:25.746Z,53.28
2019-03-18T18:55:48.545Z,52.66
2019-03-18T18:58:29.275Z,53.11
2019-03-18T19:01:00.065Z,52.74
2019-03-18T19:03:39.155Z,53.47
2019-03-18T19:06:10.104Z,53.58
2019-03-18T19:08:42.870Z,53.18
2019-03-18T19:11:15.692Z,54.04
2019-03-18T19:13:51.777Z,53.79
2019-03-18T19:16:23.703Z,53.46
2019-03-18T19:19:00.605Z,53.90
2019-03-18T19:21:31.373Z,54.75
2019-03-18T19:24:02.024Z,54.27
2019-03-18T19:26:47.358Z,55.61
2019-03-18T19:29:18.041Z,54.78
2019-03-18T19:31:58.487Z,55.19
2019-03-18T19:34:31.282Z,55.49
2019-03-18T19:37:02.021Z,55.90
2019-03-18T19:39:33.032Z,55.45
2019-03-18T19:42:07.433Z,55.15
2019-03-18T19:44:38.251Z,55.30
2019-03-18T19:47:10.782Z,55.61
2019-03-18T19:49:41.564Z,55.06
2019-03-18T19:52:13.460Z,55.72
2019-03-18T19:54:44.301Z,55.55
2019-03-18T19:57:19.136Z,55.97
2019-03-18T19:59:49.845Z,57.12
2019-03-18T20:02:26.472Z,55.76
2019-03-18T20:04:57.240Z,57.07
2019-03-18T20:07:36.817Z,55.62
2019-03-18T20:10:11.385Z,55.95
2019-03-18T20:12:44.106Z,56.07
2019-03-18T20:15:15.122Z,56.58
2019-03-18T20:17:48.033Z,56.95
2019-03-18T20:20:20.088Z,57.10
2019-03-18T20:22:51.881Z,56.96
2019-03-18T20:25:22.760Z,57.10
2019-03-18T20:27:58.783Z,57.12
2019-03-18T20:30:29.777Z,58.42
2019-03-18T20:33:00.602Z,58.50
2019-03-18T20:35:32.546Z,58.03
2019-03-18T20:38:03.537Z,58.00
2019-03-18T20:40:34.460Z,58.32
2019-03-18T20:43:05.223Z,59.05
2019-03-18T20:45:35.873Z,59.92
2019-03-18T20:48:07.607Z,60.41
2019-03-18T20:50:38.342Z,60.00
2019-03-18T20:53:18.483Z,61.50
2019-03-18T20:55:50.181Z,60.90
2019-03-18T20:58:20.885Z,62.00
2019-03-18T21:00:59.832Z,61.63
2019-03-18T21:03:33.869Z,62.17
2019-03-18T21:06:04.591Z,61.85
2019-03-18T21:08:35.638Z,62.10
2019-03-18T21:11:07.238Z,61.22
2019-03-18T21:13:44.303Z,62.02
2019-03-18T21:16:16.386Z,61.95
2019-03-18T21:18:57.403Z,62.54
2019-03-18T21:21:28.189Z,63.87
2019-03-18T21:24:22.719Z,63.69
2019-03-18T21:26:52.514Z,64.10
2019-03-18T21:29:27.679Z,64.20
2019-03-18T21:32:02.577Z,64.95
2019-03-18T21:34:33.443Z,64.81
2019-03-18T21:37:05.331Z,64.99
2019-03-18T21:39:42.089Z,64.94
2019-03-18T21:42:12.814Z,65.17
2019-03-18T21:44:55.271Z,65.25
2019-03-18T21:47:29.864Z,65.15
2019-03-18T21:50:07.634Z,65.99
2019-03-18T21:52:40.449Z,65.70
2019-03-18T21:55:12.004Z,66.09
2019-03-18T21:57:42.956Z,66.33
2019-03-18T22:00:23.757Z,65.92
2019-03-18T22:02:58.509Z,66.48
2019-03-18T22:05:29.094Z,66.62
2019-03-18T22:08:00.728Z,66.99
2019-03-18T22:10:31.497Z,66.94
2019-03-18T22:13:13.121Z,67.25
2019-03-18T22:15:53.889Z,67.43
2019-03-18T22:18:24.543Z,66.94
2019-03-18T22:21:03.523Z,66.79
2019-03-18T22:23:35.410Z,66.37
2019-03-18T22:26:07.244Z,67.19
2019-03-18T22:28:49.924Z,67.24
2019-03-18T22:31:25.813Z,67.37
2019-03-18T22:33:56.504Z,67.44
2019-03-18T22:36:34.679Z,67.35
2019-03-18T22:39:08.490Z,67.09
2019-03-18T22:42:24.975Z,68.45
2019-03-18T22:44:55.988Z,68.01
2019-03-18T22:47:27.934Z,68.05
2019-03-18T22:50:05.991Z,69.21
2019-03-18T22:53:03.405Z,67.74
2019-03-18T22:55:38.892Z,67.89
2019-03-18T22:58:09.675Z,68.88
2019-03-18T23:00:49.146Z,68.85
2019-03-18T23:03:22.893Z,68.39
2019-03-18T23:05:56.668Z,68.98
2019-03-18T23:08:34.995Z,68.81
2019-03-18T23:11:07.543Z,68.63
2019-03-18T23:13:49.735Z,68.59
2019-03-18T23:16:23.899Z,68.85
2019-03-18T23:18:55.173Z,68.87
2019-03-18T23:21:25.765Z,69.12
2019-03-18T23:23:56.708Z,68.20
2019-03-18T23:26:37.801Z,69.19
2019-03-18T23:29:15.405Z,69.29
2019-03-18T23:31:46.695Z,69.10
2019-03-18T23:34:19.377Z,68.83
2019-03-18T23:36:50.847Z,69.12
2019-03-18T23:39:23.143Z,69.31
2019-03-18T23:41:54.543Z,69.79
2019-03-18T23:44:37.501Z,69.24
2019-03-18T23:47:10.913Z,69.66
2019-03-18T23:49:41.955Z,69.60
2019-03-18T23:52:13.323Z,70.08
2019-03-18T23:54:58.294Z,69.61
2019-03-18T23:57:29.480Z,69.17
